Time;durP1;ratioP1;P1;durP2;ratioP2;P2;SDS_P1;SDS_P2;PMS_P1;PMS_P2;Temp;Humidity;BMP_temperature;BMP_pressure;BME280_temperature;BME280_humidity;BME280_pressure;Samples;Min_cycle;Max_cycle;Signal;HPM_P1;HPM_P2
2023/07/08 00:00:36;;;;;;;8.85;5.78;;;23.20;1.00;;;;;;7387770;19;20351;-67
2023/07/08 00:03:08;;;;;;;10.65;6.53;;;23.10;1.00;;;;;;7388689;19;20042;-68
2023/07/08 00:05:40;;;;;;;8.10;5.60;;;23.20;1.00;;;;;;7388232;19;20018;-67
2023/07/08 00:08:14;;;;;;;9.20;5.40;;;23.20;1.00;;;;;;7389137;19;20335;-68
2023/07/08 00:10:44;;;;;;;7.75;5.18;;;23.20;1.00;;;;;;7385575;19;20358;-68
2023/07/08 00:13:14;;;;;;;7.32;5.82;;;23.10;1.00;;;;;;7389082;19;20024;-68
2023/07/08 00:15:44;;;;;;;7.57;5.47;;;23.00;1.00;;;;;;7388162;19;20039;-67
2023/07/08 00:18:18;;;;;;;9.23;5.90;;;23.10;1.00;;;;;;7387905;19;20427;-68
2023/07/08 00:20:50;;;;;;;7.80;5.57;;;23.10;1.00;;;;;;7387024;19;20471;-67
2023/07/08 00:23:21;;;;;;;8.45;5.70;;;23.10;1.00;;;;;;7388330;19;20491;-67
2023/07/08 00:25:51;;;;;;;7.40;5.28;;;23.10;1.00;;;;;;7388302;19;20036;-68
2023/07/08 00:28:23;;;;;;;7.60;5.40;;;23.10;1.00;;;;;;7388201;19;20053;-68
2023/07/08 00:30:54;;;;;;;7.30;5.60;;;23.00;1.00;;;;;;7391050;19;20104;-67
2023/07/08 00:33:27;;;;;;;8.27;5.25;;;23.00;1.00;;;;;;7388020;19;20503;-68
2023/07/08 00:35:57;;;;;;;11.32;5.85;;;23.00;1.00;;;;;;7387924;19;20031;-66
2023/07/08 00:38:28;;;;;;;7.78;4.40;;;23.00;1.00;;;;;;7387019;19;20470;-67
2023/07/08 00:41:06;;;;;;;8.77;5.55;;;23.00;1.00;;;;;;7386905;19;20090;-67
2023/07/08 00:43:40;;;;;;;7.43;5.35;;;23.00;1.00;;;;;;7388038;19;20030;-66
2023/07/08 00:46:31;;;;;;;8.90;5.32;;;23.00;1.00;;;;;;7391783;19;20021;-67
2023/07/08 00:49:18;;;;;;;9.15;5.40;;;22.90;1.00;;;;;;7388388;19;20039;-67
2023/07/08 00:51:48;;;;;;;8.15;5.50;;;23.00;1.00;;;;;;7388050;19;20007;-68
2023/07/08 00:54:19;;;;;;;6.85;5.20;;;22.90;1.00;;;;;;7387320;19;20011;-68
2023/07/08 00:56:56;;;;;;;8.98;5.55;;;22.90;1.00;;;;;;7392221;19;20018;-68
2023/07/08 00:59:31;;;;;;;7.90;5.47;;;22.80;1.00;;;;;;7392768;19;20018;-68
2023/07/08 01:02:04;;;;;;;10.60;5.38;;;22.70;1.00;;;;;;7394428;19;20458;-67
2023/07/08 01:04:43;;;;;;;6.47;4.95;;;22.60;1.00;;;;;;7394491;19;20490;-67
2023/07/08 01:07:21;;;;;;;9.55;5.85;;;22.50;1.00;;;;;;7394540;19;20027;-68
2023/07/08 01:09:58;;;;;;;12.00;5.78;;;22.30;1.00;;;;;;7393616;19;20025;-67
2023/07/08 01:12:33;;;;;;;9.13;5.60;;;22.20;1.00;;;;;;7394491;19;20010;-68
2023/07/08 01:15:05;;;;;;;9.25;5.55;;;22.10;1.00;;;;;;7394191;19;20038;-65
2023/07/08 01:17:35;;;;;;;9.77;5.53;;;22.10;1.00;;;;;;7394492;19;20085;-67
2023/07/08 01:20:12;;;;;;;8.10;5.63;;;22.10;1.00;;;;;;7391984;19;20018;-68
2023/07/08 01:22:46;;;;;;;8.10;5.38;;;22.00;1.00;;;;;;7394630;19;20014;-66
2023/07/08 01:25:16;;;;;;;7.30;5.15;;;21.90;1.00;;;;;;7394637;19;20018;-68
2023/07/08 01:27:49;;;;;;;9.23;5.45;;;22.00;1.00;;;;;;7394817;19;20015;-68
2023/07/08 01:30:19;;;;;;;8.20;5.75;;;21.90;1.00;;;;;;7395791;19;20010;-68
2023/07/08 01:32:52;;;;;;;9.98;6.07;;;21.90;1.00;;;;;;7394786;19;20085;-68
2023/07/08 01:35:23;;;;;;;9.73;5.53;;;21.90;1.00;;;;;;7394017;19;20482;-68
2023/07/08 01:38:00;;;;;;;7.57;5.03;;;21.80;1.00;;;;;;7393979;19;20016;-67
2023/07/08 01:40:32;;;;;;;9.52;5.97;;;21.70;1.00;;;;;;7390396;19;20355;-67
2023/07/08 01:43:04;;;;;;;9.38;5.75;;;21.60;1.00;;;;;;7399495;19;20022;-67
2023/07/08 01:45:40;;;;;;;7.43;5.40;;;21.60;1.00;;;;;;7396611;19;20435;-67
2023/07/08 01:48:12;;;;;;;7.82;5.88;;;21.40;1.00;;;;;;7393706;19;20035;-67
2023/07/08 01:50:46;;;;;;;8.20;5.70;;;21.40;1.00;;;;;;7392684;19;20491;-67
2023/07/08 01:53:23;;;;;;;10.25;5.88;;;21.20;1.00;;;;;;7394061;19;20086;-68
2023/07/08 01:55:53;;;;;;;10.20;5.72;;;21.00;1.00;;;;;;7393992;19;20074;-67
2023/07/08 01:58:24;;;;;;;9.45;6.20;;;20.80;1.00;;;;;;7393184;19;20010;-67
2023/07/08 02:00:54;;;;;;;13.10;6.07;;;20.70;1.00;;;;;;7391644;19;20367;-68
2023/07/08 02:03:24;;;;;;;8.30;5.50;;;20.50;1.00;;;;;;7393312;19;20504;-68
2023/07/08 02:05:54;;;;;;;8.23;5.70;;;20.50;1.00;;;;;;7394797;19;20324;-68
2023/07/08 02:08:27;;;;;;;8.20;5.50;;;20.50;1.00;;;;;;7393992;19;20470;-66
2023/07/08 02:10:59;;;;;;;8.70;5.75;;;20.50;1.00;;;;;;7391856;19;20019;-67
2023/07/08 02:13:30;;;;;;;9.85;5.70;;;20.50;1.00;;;;;;7393795;19;20104;-67
2023/07/08 02:15:59;;;;;;;7.95;5.60;;;20.50;1.00;;;;;;7394571;19;20022;-66
2023/07/08 02:18:32;;;;;;;9.50;6.13;;;20.50;1.00;;;;;;7393000;19;20011;-65
2023/07/08 02:21:02;;;;;;;10.60;5.53;;;20.50;1.00;;;;;;7391131;19;20440;-67
2023/07/08 02:23:34;;;;;;;8.57;5.93;;;20.60;1.00;;;;;;7392231;19;20486;-67
2023/07/08 02:26:04;;;;;;;7.53;5.40;;;20.60;1.00;;;;;;7393263;19;20070;-67
2023/07/08 02:28:34;;;;;;;9.75;5.57;;;20.50;1.00;;;;;;7392557;19;20038;-67
2023/07/08 02:31:05;;;;;;;8.88;5.82;;;20.60;1.00;;;;;;7395389;19;20014;-67
2023/07/08 02:33:35;;;;;;;8.07;5.43;;;20.50;1.00;;;;;;7392137;19;20478;-67
2023/07/08 02:36:05;;;;;;;9.40;5.30;;;20.60;1.00;;;;;;7392577;19;20027;-67
2023/07/08 02:38:37;;;;;;;9.57;5.60;;;20.60;1.00;;;;;;7391070;19;20070;-67
2023/07/08 02:41:07;;;;;;;9.02;5.72;;;20.70;1.00;;;;;;7389251;19;20018;-67
2023/07/08 02:43:37;;;;;;;10.43;5.93;;;20.70;1.00;;;;;;7391602;19;20031;-67
2023/07/08 02:46:07;;;;;;;7.93;6.03;;;20.70;1.00;;;;;;7395743;19;20369;-67
2023/07/08 02:48:37;;;;;;;9.95;5.70;;;20.60;1.00;;;;;;7392101;19;20017;-68
2023/07/08 02:51:08;;;;;;;8.73;5.47;;;20.60;1.00;;;;;;7389071;19;20035;-67
2023/07/08 02:53:41;;;;;;;7.28;5.22;;;20.60;1.00;;;;;;7391453;19;20487;-67
2023/07/08 02:56:11;;;;;;;9.15;4.90;;;20.70;1.00;;;;;;7392206;19;20031;-68
2023/07/08 02:58:42;;;;;;;9.55;5.63;;;20.70;1.00;;;;;;7391905;19;20469;-67
2023/07/08 03:01:17;;;;;;;10.48;5.28;;;20.70;1.00;;;;;;7390329;19;20035;-67
2023/07/08 03:03:47;;;;;;;10.23;5.95;;;20.70;1.00;;;;;;7390901;19;20038;-68
2023/07/08 03:06:17;;;;;;;7.78;5.50;;;20.50;1.00;;;;;;7391199;19;20031;-68
2023/07/08 03:08:50;;;;;;;7.97;5.55;;;20.50;1.00;;;;;;7391204;19;20019;-67
2023/07/08 03:11:20;;;;;;;9.18;5.60;;;20.60;1.00;;;;;;7388769;19;20014;-67
2023/07/08 03:13:50;;;;;;;10.13;5.40;;;20.60;1.00;;;;;;7391040;19;20471;-67
2023/07/08 03:16:20;;;;;;;8.02;5.80;;;20.60;1.00;;;;;;7391418;19;20011;-68
2023/07/08 03:18:49;;;;;;;9.95;5.82;;;20.70;1.00;;;;;;7389077;19;20032;-68
2023/07/08 03:21:21;;;;;;;7.70;5.70;;;20.80;1.00;;;;;;7390086;19;20021;-67
2023/07/08 03:23:54;;;;;;;9.02;5.90;;;20.70;1.00;;;;;;7390891;19;20021;-67
2023/07/08 03:26:26;;;;;;;8.57;5.75;;;20.70;1.00;;;;;;7389982;19;20077;-68
2023/07/08 03:28:59;;;;;;;8.63;5.85;;;20.70;1.00;;;;;;7390836;19;20513;-67
2023/07/08 03:31:29;;;;;;;8.23;5.90;;;20.70;1.00;;;;;;7388724;19;20107;-68
2023/07/08 03:33:59;;;;;;;8.82;5.45;;;20.60;1.00;;;;;;7389972;19;20370;-68
2023/07/08 03:36:29;;;;;;;8.48;5.40;;;20.60;1.00;;;;;;7390850;19;20715;-68
2023/07/08 03:39:02;;;;;;;8.60;5.40;;;20.40;1.00;;;;;;7390734;19;20038;-68
2023/07/08 03:41:32;;;;;;;8.30;5.95;;;20.40;1.00;;;;;;7389137;19;20015;-67
2023/07/08 03:44:02;;;;;;;11.55;5.47;;;20.40;1.00;;;;;;7390356;19;20425;-68
2023/07/08 03:46:31;;;;;;;8.48;5.38;;;20.40;1.00;;;;;;7395054;19;20050;-68
2023/07/08 03:49:01;;;;;;;9.65;5.40;;;20.70;1.00;;;;;;7390331;19;20011;-67
2023/07/08 03:51:35;;;;;;;10.65;5.72;;;20.90;1.00;;;;;;7388563;19;20027;-68
2023/07/08 03:54:09;;;;;;;11.40;6.22;;;21.20;1.00;;;;;;7389610;19;20130;-68
2023/07/08 03:56:39;;;;;;;9.55;5.65;;;21.10;1.00;;;;;;7390470;19;20015;-67
2023/07/08 03:59:09;;;;;;;7.10;5.13;;;21.10;1.00;;;;;;7390397;19;20032;-68
2023/07/08 04:01:40;;;;;;;8.70;6.00;;;21.40;1.00;;;;;;7388263;19;20482;-67
2023/07/08 04:04:15;;;;;;;9.68;5.65;;;21.40;1.00;;;;;;7389072;19;20014;-67
2023/07/08 04:06:46;;;;;;;9.80;5.40;;;21.70;1.00;;;;;;7389505;19;20018;-66
2023/07/08 04:09:18;;;;;;;9.93;5.63;;;21.30;1.00;;;;;;7389170;19;20373;-66
2023/07/08 04:11:48;;;;;;;11.20;6.30;;;20.70;1.00;;;;;;7389423;19;20010;-66
2023/07/08 04:14:18;;;;;;;12.48;8.52;;;21.40;1.00;;;;;;7389109;19;20011;-66
2023/07/08 04:16:53;;;;;;;9.85;5.65;;;22.20;1.00;;;;;;7389833;19;20014;-67
2023/07/08 04:19:23;;;;;;;11.18;5.82;;;21.60;1.00;;;;;;7387183;19;20015;-66
2023/07/08 04:21:53;;;;;;;10.82;5.88;;;21.20;1.00;;;;;;7388265;19;20010;-66
2023/07/08 04:24:26;;;;;;;10.32;5.32;;;21.10;1.00;;;;;;7389061;19;20042;-66
2023/07/08 04:26:57;;;;;;;9.18;5.55;;;22.30;1.00;;;;;;7389531;19;20026;-66
2023/07/08 04:29:27;;;;;;;9.88;6.32;;;23.00;1.00;;;;;;7390202;19;20006;-66
2023/07/08 04:31:57;;;;;;;9.20;5.88;;;23.30;1.00;;;;;;7394028;19;20010;-66
2023/07/08 04:34:28;;;;;;;8.45;5.90;;;23.80;1.00;;;;;;7396139;19;20015;-66
2023/07/08 04:36:58;;;;;;;8.18;5.47;;;23.60;1.00;;;;;;7396812;19;20038;-67
2023/07/08 04:39:32;;;;;;;7.72;5.55;;;24.70;1.00;;;;;;7396322;19;20388;-68
2023/07/08 04:42:02;;;;;;;9.43;5.68;;;24.90;1.00;;;;;;7395024;19;20011;-68
2023/07/08 04:44:32;;;;;;;8.48;5.93;;;24.90;1.00;;;;;;7396306;19;20530;-67
2023/07/08 04:47:02;;;;;;;7.80;5.63;;;24.50;1.00;;;;;;7396882;19;20077;-66
2023/07/08 04:49:33;;;;;;;9.43;5.93;;;25.10;1.00;;;;;;7395791;19;20010;-68
2023/07/08 04:52:04;;;;;;;10.00;6.20;;;23.00;1.00;;;;;;7396152;19;20014;-67
2023/07/08 04:54:36;;;;;;;8.32;6.25;;;21.80;1.00;;;;;;7395750;19;20010;-67
2023/07/08 04:57:07;;;;;;;9.30;6.00;;;21.50;1.00;;;;;;7396064;19;20042;-67
2023/07/08 04:59:37;;;;;;;10.68;6.30;;;21.50;1.00;;;;;;7394160;19;20074;-67
2023/07/08 05:02:07;;;;;;;9.30;6.07;;;21.60;1.00;;;;;;7394172;19;20034;-67
2023/07/08 05:04:37;;;;;;;9.80;6.30;;;22.10;1.00;;;;;;7395155;19;20018;-67
2023/07/08 05:07:07;;;;;;;8.00;5.80;;;22.10;1.00;;;;;;7395544;19;20018;-67
2023/07/08 05:09:40;;;;;;;9.15;5.70;;;22.00;1.00;;;;;;7394968;19;20015;-66
2023/07/08 05:12:10;;;;;;;8.52;5.40;;;22.20;1.00;;;;;;7395893;19;20011;-66
2023/07/08 05:14:40;;;;;;;9.40;5.35;;;22.30;1.00;;;;;;7394770;19;20393;-66
2023/07/08 05:17:10;;;;;;;7.22;5.03;;;22.00;1.00;;;;;;7395491;19;20018;-67
2023/07/08 05:19:41;;;;;;;9.98;6.00;;;22.10;1.00;;;;;;7394441;19;20034;-67
2023/07/08 05:22:11;;;;;;;7.90;5.45;;;22.40;1.00;;;;;;7393846;19;20036;-68
2023/07/08 05:24:44;;;;;;;7.00;4.85;;;22.20;1.00;;;;;;7394578;19;20354;-68
2023/07/08 05:27:16;;;;;;;8.90;5.35;;;21.90;1.00;;;;;;7397930;19;20021;-67
2023/07/08 05:29:48;;;;;;;10.27;5.55;;;21.90;1.00;;;;;;7395869;19;20074;-66
2023/07/08 05:32:18;;;;;;;9.50;5.85;;;22.10;1.00;;;;;;7394733;19;20038;-67
2023/07/08 05:34:49;;;;;;;8.15;4.88;;;22.00;1.00;;;;;;7394071;19;20466;-67
2023/07/08 05:37:23;;;;;;;9.10;5.85;;;22.20;1.00;;;;;;7394935;19;20011;-66
2023/07/08 05:39:56;;;;;;;8.85;5.45;;;22.50;1.00;;;;;;7394094;19;20010;-66
2023/07/08 05:42:27;;;;;;;8.23;5.57;;;22.40;1.00;;;;;;7391630;19;20025;-67
2023/07/08 05:44:57;;;;;;;9.77;5.82;;;22.30;1.00;;;;;;7393765;19;20091;-66
2023/07/08 05:47:28;;;;;;;7.22;5.30;;;22.30;1.00;;;;;;7394218;19;20478;-68
2023/07/08 05:49:58;;;;;;;9.85;5.97;;;23.00;1.00;;;;;;7393335;19;20089;-67
2023/07/08 05:52:29;;;;;;;8.25;5.22;;;22.80;1.00;;;;;;7393876;19;20078;-67
2023/07/08 05:55:01;;;;;;;12.15;5.75;;;22.70;1.00;;;;;;7392942;19;20027;-67
2023/07/08 05:57:31;;;;;;;8.43;5.47;;;22.80;1.00;;;;;;7394144;19;20038;-67
2023/07/08 06:00:01;;;;;;;8.65;6.40;;;22.90;1.00;;;;;;7393134;19;20018;-67
2023/07/08 06:02:31;;;;;;;9.20;5.55;;;22.90;1.00;;;;;;7392425;19;20042;-67
2023/07/08 06:05:01;;;;;;;10.05;5.60;;;23.00;1.00;;;;;;7393299;19;20019;-67
2023/07/08 06:07:32;;;;;;;10.45;6.05;;;23.40;1.00;;;;;;7393316;19;20019;-67
2023/07/08 06:10:05;;;;;;;10.75;6.00;;;23.70;1.00;;;;;;7391552;19;20039;-69
2023/07/08 06:12:35;;;;;;;9.48;5.97;;;25.70;1.00;;;;;;7393931;19;20525;-68
2023/07/08 06:15:06;;;;;;;9.60;5.93;;;25.70;1.00;;;;;;7392513;19;20018;-68
2023/07/08 06:17:36;;;;;;;10.98;6.68;;;25.40;1.00;;;;;;7393372;19;20011;-68
2023/07/08 06:20:07;;;;;;;9.23;5.88;;;25.80;1.00;;;;;;7390681;19;20018;-67
2023/07/08 06:22:37;;;;;;;8.50;5.93;;;25.90;1.00;;;;;;7392111;19;20028;-67
2023/07/08 06:25:19;;;;;;;8.50;5.88;;;25.80;1.00;;;;;;7393099;19;20013;-67
2023/07/08 06:27:49;;;;;;;9.43;5.70;;;25.80;1.00;;;;;;7393316;19;20086;-68
2023/07/08 06:30:22;;;;;;;13.43;6.35;;;26.20;1.00;;;;;;7393575;19;20018;-68
2023/07/08 06:32:52;;;;;;;10.50;6.25;;;26.50;1.00;;;;;;7392910;19;20018;-68
2023/07/08 06:35:22;;;;;;;11.07;6.35;;;27.40;1.00;;;;;;7391869;19;20018;-67
2023/07/08 06:37:52;;;;;;;9.30;6.32;;;28.40;1.00;;;;;;7392204;19;20042;-67
2023/07/08 06:40:24;;;;;;;8.23;6.05;;;28.80;1.00;;;;;;7392629;19;20019;-67
2023/07/08 06:42:54;;;;;;;7.80;5.70;;;28.90;1.00;;;;;;7392577;19;20031;-68
2023/07/08 06:45:24;;;;;;;9.20;5.78;;;29.00;1.00;;;;;;7395310;19;20018;-67
2023/07/08 06:47:54;;;;;;;8.07;5.60;;;28.40;1.00;;;;;;7392753;19;20368;-67
2023/07/08 06:50:24;;;;;;;9.18;5.38;;;27.90;1.00;;;;;;7390516;19;20526;-68
2023/07/08 06:52:54;;;;;;;11.32;5.85;;;27.60;1.00;;;;;;7391341;19;20034;-68
2023/07/08 06:55:28;;;;;;;13.02;6.13;;;27.80;1.00;;;;;;7390438;19;20078;-69
2023/07/08 06:57:58;;;;;;;;;;;27.60;1.00;;;;;;7391822;19;20014;-68
2023/07/08 07:00:29;;;;;;;10.18;5.70;;;26.80;1.00;;;;;;7390938;19;19934;-68
2023/07/08 07:02:59;;;;;;;10.25;5.55;;;26.80;1.00;;;;;;7390423;19;20019;-68
2023/07/08 07:05:29;;;;;;;9.25;5.63;;;26.50;1.00;;;;;;7391002;19;20035;-68
2023/07/08 07:07:59;;;;;;;10.38;5.45;;;26.70;1.00;;;;;;7390733;19;20489;-67
2023/07/08 07:10:31;;;;;;;10.18;6.07;;;26.20;1.00;;;;;;7390562;19;20015;-68
2023/07/08 07:13:04;;;;;;;9.57;5.43;;;26.00;1.00;;;;;;7391924;19;20045;-67
2023/07/08 07:15:35;;;;;;;8.60;5.70;;;25.90;1.00;;;;;;7390208;19;20026;-69
2023/07/08 07:18:05;;;;;;;13.85;5.95;;;25.70;1.00;;;;;;7390568;19;20014;-67
2023/07/08 07:20:35;;;;;;;9.18;5.82;;;25.80;1.00;;;;;;7389593;19;20014;-67
2023/07/08 07:23:06;;;;;;;7.50;5.47;;;25.90;1.00;;;;;;7389539;19;20014;-69
2023/07/08 07:25:38;;;;;;;9.43;5.60;;;25.90;1.00;;;;;;7390210;19;20038;-67
2023/07/08 07:28:08;;;;;;;7.82;5.57;;;26.10;1.00;;;;;;7390572;19;20021;-67
2023/07/08 07:30:38;;;;;;;9.52;6.22;;;25.90;1.00;;;;;;7393036;19;20090;-68
2023/07/08 07:33:08;;;;;;;8.93;5.25;;;25.90;1.00;;;;;;7389166;19;20018;-67
2023/07/08 07:35:38;;;;;;;8.15;5.68;;;26.10;1.00;;;;;;7389063;19;20489;-68
2023/07/08 07:38:08;;;;;;;9.32;5.57;;;26.10;1.00;;;;;;7390079;19;20015;-68
2023/07/08 07:40:42;;;;;;;9.18;5.38;;;26.00;1.00;;;;;;7386929;19;20022;-68
2023/07/08 07:43:12;;;;;;;7.47;4.93;;;26.20;1.00;;;;;;7387513;19;20025;-68
2023/07/08 07:45:42;;;;;;;8.38;5.30;;;26.60;1.00;;;;;;7391916;19;20018;-67
2023/07/08 07:48:12;;;;;;;7.07;4.55;;;26.60;1.00;;;;;;7389281;19;20546;-68
2023/07/08 07:50:42;;;;;;;8.15;4.97;;;26.30;1.00;;;;;;7388969;19;20019;-68
2023/07/08 07:53:12;;;;;;;7.57;5.10;;;26.60;1.00;;;;;;7389458;19;20037;-68
2023/07/08 07:55:45;;;;;;;6.75;4.95;;;27.10;1.00;;;;;;7388938;19;20039;-67
2023/07/08 07:58:15;;;;;;;7.07;4.47;;;27.10;1.00;;;;;;7387307;19;20396;-68
2023/07/08 08:00:45;;;;;;;9.45;4.78;;;26.60;1.00;;;;;;7387025;19;20011;-67
2023/07/08 08:03:16;;;;;;;8.45;5.53;;;26.50;1.00;;;;;;7388586;19;20499;-68
2023/07/08 08:05:49;;;;;;;9.90;4.90;;;26.70;1.00;;;;;;7388198;19;20476;-67
2023/07/08 08:08:19;;;;;;;8.02;4.85;;;26.90;1.00;;;;;;7388206;19;20018;-69
2023/07/08 08:10:52;;;;;;;7.72;4.45;;;26.60;1.00;;;;;;7387944;19;20015;-67
2023/07/08 08:13:21;;;;;;;12.35;5.28;;;26.80;1.00;;;;;;7388213;19;20010;-68
2023/07/08 08:15:57;;;;;;;8.52;5.05;;;27.20;1.00;;;;;;7388478;19;20035;-68
2023/07/08 08:18:28;;;;;;;8.80;4.20;;;27.50;1.00;;;;;;7387617;19;20344;-68
2023/07/08 08:20:58;;;;;;;7.88;4.40;;;27.60;1.00;;;;;;7387336;19;20011;-67
2023/07/08 08:23:28;;;;;;;6.25;4.45;;;27.90;1.00;;;;;;7387756;19;20021;-68
2023/07/08 08:26:01;;;;;;;10.68;4.95;;;28.10;1.00;;;;;;7388969;19;20011;-67
2023/07/08 08:28:31;;;;;;;6.65;4.38;;;28.50;1.00;;;;;;7388427;19;20085;-68
2023/07/08 08:31:01;;;;;;;8.93;4.75;;;28.80;1.00;;;;;;7391978;19;20054;-68
2023/07/08 08:33:31;;;;;;;8.13;4.70;;;28.50;1.00;;;;;;7388156;19;20019;-69
2023/07/08 08:36:01;;;;;;;8.38;4.63;;;28.80;1.00;;;;;;7388045;19;20015;-68
2023/07/08 08:38:32;;;;;;;8.77;5.10;;;28.80;1.00;;;;;;7387616;19;20722;-68
2023/07/08 08:41:14;;;;;;;8.30;4.85;;;28.70;1.00;;;;;;7387195;19;20046;-69
2023/07/08 08:43:45;;;;;;;6.22;4.60;;;28.50;1.00;;;;;;7386771;19;20011;-67
2023/07/08 08:46:32;;;;;;;6.03;3.85;;;28.80;1.00;;;;;;7392353;19;20010;-68
2023/07/08 08:49:07;;;;;;;5.97;4.20;;;28.50;1.00;;;;;;7387477;19;20098;-66
2023/07/08 08:51:37;;;;;;;5.72;4.05;;;28.80;1.00;;;;;;7385913;19;20011;-68
2023/07/08 08:54:07;;;;;;;5.32;4.10;;;29.20;1.00;;;;;;7387829;19;20017;-68
2023/07/08 08:56:47;;;;;;;6.53;4.60;;;29.20;1.00;;;;;;7387064;19;20015;-68
2023/07/08 08:59:26;;;;;;;10.75;4.75;;;28.60;1.00;;;;;;7387556;19;20030;-68
2023/07/08 09:01:56;;;;;;;9.07;4.72;;;28.70;1.00;;;;;;7385869;19;20006;-68
2023/07/08 09:04:32;;;;;;;8.85;5.25;;;28.70;1.00;;;;;;7384872;19;20010;-68
2023/07/08 09:07:09;;;;;;;6.97;4.47;;;28.60;1.00;;;;;;7386642;19;20018;-69
2023/07/08 09:09:43;;;;;;;8.38;4.47;;;28.90;1.00;;;;;;7387298;19;20022;-69
2023/07/08 09:12:21;;;;;;;6.72;4.30;;;28.60;1.00;;;;;;7390071;19;20015;-66
2023/07/08 09:14:52;;;;;;;6.07;4.00;;;28.80;1.00;;;;;;7387069;19;20014;-68
2023/07/08 09:17:27;;;;;;;8.75;4.60;;;28.70;1.00;;;;;;7390166;19;20018;-68
2023/07/08 09:20:07;;;;;;;6.13;4.40;;;29.30;1.00;;;;;;7393828;19;20027;-69
2023/07/08 09:22:41;;;;;;;6.68;3.90;;;29.30;1.00;;;;;;7393213;19;20600;-66
2023/07/08 09:25:24;;;;;;;7.78;4.65;;;29.20;1.00;;;;;;7392490;19;20019;-68
2023/07/08 09:27:57;;;;;;;7.70;4.38;;;29.40;1.00;;;;;;7394306;19;20011;-68
2023/07/08 09:30:28;;;;;;;6.00;4.18;;;29.40;1.00;;;;;;7396041;19;20031;-68
2023/07/08 09:32:59;;;;;;;8.05;4.07;;;29.30;1.00;;;;;;7394519;19;20387;-69
2023/07/08 09:35:31;;;;;;;7.63;4.45;;;29.10;1.00;;;;;;7392846;19;20038;-68
2023/07/08 09:38:09;;;;;;;7.15;4.10;;;29.30;1.00;;;;;;7394250;19;20087;-69
2023/07/08 09:40:39;;;;;;;6.18;3.70;;;29.50;1.00;;;;;;7392171;19;20026;-69
2023/07/08 09:43:25;;;;;;;5.88;4.20;;;29.40;1.00;;;;;;7394104;19;20010;-68
2023/07/08 09:46:01;;;;;;;6.43;4.07;;;29.40;1.00;;;;;;7396854;19;20496;-68
2023/07/08 09:48:35;;;;;;;7.18;3.83;;;29.20;1.00;;;;;;7392804;19;20006;-68
2023/07/08 09:51:08;;;;;;;7.50;3.80;;;29.40;1.00;;;;;;7392123;19;20027;-69
2023/07/08 09:53:38;;;;;;;5.70;3.63;;;29.40;1.00;;;;;;7393151;19;20086;-67
2023/07/08 09:56:12;;;;;;;4.97;3.53;;;29.90;1.00;;;;;;7392766;19;20082;-69
2023/07/08 09:58:49;;;;;;;7.65;3.05;;;29.80;1.00;;;;;;7392881;19;20034;-69
2023/07/08 10:01:23;;;;;;;5.70;2.70;;;30.00;1.00;;;;;;7390888;19;20018;-69
2023/07/08 10:03:54;;;;;;;4.97;2.03;;;30.50;1.00;;;;;;7392814;19;20015;-68
2023/07/08 10:06:27;;;;;;;4.05;1.65;;;30.50;1.00;;;;;;7394204;19;20018;-68
2023/07/08 10:08:57;;;;;;;4.20;1.70;;;30.80;1.00;;;;;;7393345;19;20010;-67
2023/07/08 10:11:30;;;;;;;3.78;1.65;;;30.80;1.00;;;;;;7390881;19;20035;-68
2023/07/08 10:14:08;;;;;;;4.80;1.80;;;30.60;1.00;;;;;;7393145;19;20030;-69
2023/07/08 10:16:44;;;;;;;3.20;1.45;;;30.60;1.00;;;;;;7393467;19;20002;-69
2023/07/08 10:19:16;;;;;;;3.50;1.45;;;30.80;1.00;;;;;;7392421;19;20024;-69
2023/07/08 10:21:54;;;;;;;3.22;1.73;;;30.80;1.00;;;;;;7392334;19;20015;-69
2023/07/08 10:24:39;;;;;;;3.00;1.40;;;30.50;1.00;;;;;;7391418;19;20018;-67
2023/07/08 10:27:18;;;;;;;2.38;1.25;;;30.60;1.00;;;;;;7393503;19;20014;-68
2023/07/08 10:29:57;;;;;;;3.75;1.92;;;30.80;1.00;;;;;;7392176;19;20086;-69
2023/07/08 10:32:38;;;;;;;2.92;1.73;;;31.00;1.00;;;;;;7390904;19;20018;-68
2023/07/08 10:35:17;;;;;;;3.50;1.95;;;31.00;1.00;;;;;;7392323;19;20018;-69
2023/07/08 10:38:04;;;;;;;3.22;1.55;;;31.10;1.00;;;;;;7392005;19;20375;-67
2023/07/08 10:40:49;;;;;;;4.95;1.88;;;30.70;1.00;;;;;;7390097;19;20359;-68
2023/07/08 10:43:33;;;;;;;3.45;1.92;;;30.80;1.00;;;;;;7392006;19;20014;-66
2023/07/08 10:46:11;;;;;;;;;;;31.10;1.00;;;;;;7394096;19;20054;-69
2023/07/08 10:49:09;;;;;;;3.80;1.90;;;31.20;1.00;;;;;;7390099;19;19931;-68
2023/07/08 10:51:49;;;;;;;5.40;2.42;;;31.10;1.00;;;;;;7389704;19;20034;-68
2023/07/08 10:54:45;;;;;;;3.30;2.25;;;30.90;1.00;;;;;;7389714;19;20019;-70
2023/07/08 10:57:33;;;;;;;5.05;2.97;;;31.00;1.00;;;;;;7391938;19;20039;-69
2023/07/08 11:00:11;;;;;;;6.03;3.20;;;31.00;1.00;;;;;;7390652;19;20354;-69
2023/07/08 11:03:23;;;;;;;9.00;4.20;;;30.90;1.00;;;;;;7390666;19;20537;-69
2023/07/08 11:06:02;;;;;;;6.53;3.30;;;31.10;1.00;;;;;;7390262;19;20042;-68
2023/07/08 11:08:35;;;;;;;6.10;3.22;;;30.70;1.00;;;;;;7390488;19;20031;-69
2023/07/08 11:11:11;;;;;;;4.22;3.10;;;30.70;1.00;;;;;;7389341;19;20085;-69
2023/07/08 11:13:51;;;;;;;10.18;3.63;;;30.80;1.00;;;;;;7390340;19;20018;-68
2023/07/08 11:16:26;;;;;;;5.35;3.20;;;30.70;1.00;;;;;;7390601;19;20043;-71
2023/07/08 11:19:06;;;;;;;6.05;3.00;;;30.70;1.00;;;;;;7389918;19;20026;-69
2023/07/08 11:21:42;;;;;;;6.60;2.90;;;30.60;1.00;;;;;;7388751;19;20018;-68
2023/07/08 11:24:24;;;;;;;8.30;3.42;;;30.70;1.00;;;;;;7389166;19;20014;-68
2023/07/08 11:27:01;;;;;;;4.65;3.03;;;30.90;1.00;;;;;;7389065;19;20033;-69
2023/07/08 11:29:40;;;;;;;3.85;2.50;;;30.90;1.00;;;;;;7389909;19;20010;-68
2023/07/08 11:32:15;;;;;;;4.78;2.60;;;31.00;1.00;;;;;;7389338;19;20018;-69
2023/07/08 11:34:54;;;;;;;4.80;2.55;;;31.00;1.00;;;;;;7388278;19;20082;-68
2023/07/08 11:37:24;;;;;;;3.70;2.50;;;31.20;1.00;;;;;;7389680;19;20339;-68
2023/07/08 11:40:01;;;;;;;4.53;2.72;;;31.20;1.00;;;;;;7387268;19;20017;-70
2023/07/08 11:42:38;;;;;;;3.55;2.17;;;30.80;1.00;;;;;;7390687;19;20011;-69
2023/07/08 11:45:17;;;;;;;5.13;2.45;;;30.60;1.00;;;;;;7390232;19;20039;-69
2023/07/08 11:47:48;;;;;;;4.00;2.63;;;30.80;1.00;;;;;;7390078;19;20010;-68
2023/07/08 11:50:27;;;;;;;5.32;2.50;;;30.70;1.00;;;;;;7388702;19;20038;-70
2023/07/08 11:53:01;;;;;;;3.70;2.40;;;30.70;1.00;;;;;;7389602;19;20070;-70
2023/07/08 11:55:39;;;;;;;5.40;2.50;;;31.00;1.00;;;;;;7389018;19;20011;-68
2023/07/08 11:58:11;;;;;;;3.35;2.00;;;31.00;1.00;;;;;;7388645;19;20031;-69
2023/07/08 12:00:43;;;;;;;5.25;2.47;;;31.00;1.00;;;;;;7387922;19;20047;-67
2023/07/08 12:03:22;;;;;;;3.15;2.10;;;31.20;1.00;;;;;;7389570;19;20015;-70
2023/07/08 12:05:55;;;;;;;3.03;2.00;;;30.80;1.00;;;;;;7387278;19;20018;-68
2023/07/08 12:08:37;;;;;;;4.07;2.30;;;31.20;1.00;;;;;;7388448;19;20086;-70
2023/07/08 12:11:13;;;;;;;2.92;2.10;;;31.10;1.00;;;;;;7387175;19;20010;-70
2023/07/08 12:13:43;;;;;;;3.45;2.10;;;31.00;1.00;;;;;;7387822;19;20026;-69
2023/07/08 12:16:15;;;;;;;4.40;2.20;;;31.10;1.00;;;;;;7388845;19;20438;-69
2023/07/08 12:18:46;;;;;;;2.97;1.95;;;31.30;1.00;;;;;;7388594;19;20088;-69
2023/07/08 12:21:19;;;;;;;4.32;2.63;;;31.00;1.00;;;;;;7386583;19;20011;-69
2023/07/08 12:23:50;;;;;;;4.43;2.30;;;30.70;1.00;;;;;;7387872;19;20014;-69
2023/07/08 12:26:20;;;;;;;3.63;1.88;;;30.90;1.00;;;;;;7387294;19;20507;-69
2023/07/08 12:28:50;;;;;;;4.35;2.08;;;31.20;1.00;;;;;;7387765;19;20011;-68
2023/07/08 12:31:23;;;;;;;4.72;1.90;;;31.20;1.00;;;;;;7386761;19;20021;-70
2023/07/08 12:33:53;;;;;;;3.53;2.10;;;31.10;1.00;;;;;;7388508;19;20018;-69
2023/07/08 12:36:32;;;;;;;3.15;2.10;;;31.30;1.00;;;;;;7388007;19;20484;-69
2023/07/08 12:39:03;;;;;;;4.22;1.80;;;31.40;1.00;;;;;;7388619;19;20127;-69
2023/07/08 12:41:36;;;;;;;4.40;2.33;;;31.00;1.00;;;;;;7386103;19;20014;-69
2023/07/08 12:44:18;;;;;;;4.45;2.35;;;31.50;1.00;;;;;;7387742;19;20018;-69
2023/07/08 12:46:49;;;;;;;3.15;2.05;;;31.60;1.00;;;;;;7386776;19;20020;-68
2023/07/08 12:49:19;;;;;;;5.18;2.05;;;31.30;1.00;;;;;;7387591;19;20138;-69
2023/07/08 12:51:52;;;;;;;6.20;2.20;;;31.30;1.00;;;;;;7389459;19;20098;-68
2023/07/08 12:54:22;;;;;;;5.65;2.30;;;31.40;1.00;;;;;;7395068;19;20031;-67
2023/07/08 12:56:53;;;;;;;2.50;2.00;;;31.10;1.00;;;;;;7395338;19;20043;-69
2023/07/08 12:59:26;;;;;;;6.72;2.17;;;31.20;1.00;;;;;;7394659;19;20039;-70
2023/07/08 13:01:57;;;;;;;3.22;2.00;;;31.50;1.00;;;;;;7395496;19;20529;-68
2023/07/08 13:04:27;;;;;;;3.42;2.13;;;31.70;1.00;;;;;;7394829;19;20018;-69
2023/07/08 13:07:02;;;;;;;4.70;2.13;;;31.30;1.00;;;;;;7392851;19;20031;-69
2023/07/08 13:09:41;;;;;;;2.55;1.90;;;31.30;1.00;;;;;;7394339;19;20023;-70
2023/07/08 13:12:18;;;;;;;3.10;2.17;;;31.50;1.00;;;;;;7394540;19;20014;-69
2023/07/08 13:14:48;;;;;;;5.00;2.30;;;31.40;1.00;;;;;;7393236;19;20479;-69
2023/07/08 13:17:19;;;;;;;3.08;1.92;;;31.70;1.00;;;;;;7396111;19;20422;-68
2023/07/08 13:19:50;;;;;;;4.68;2.30;;;31.60;1.00;;;;;;7393364;19;20042;-68
2023/07/08 13:22:25;;;;;;;3.10;2.40;;;31.70;1.00;;;;;;7393899;19;20029;-69
2023/07/08 13:25:02;;;;;;;3.22;1.90;;;31.60;1.00;;;;;;7393823;19;20015;-69